Time;durP1;ratioP1;P1;durP2;ratioP2;P2;SDS_P1;SDS_P2;PMS_P1;PMS_P2;Temp;Humidity;BMP_temperature;BMP_pressure;BME280_temperature;BME280_humidity;BME280_pressure;Samples;Min_cycle;Max_cycle;Signal;HPM_P1;HPM_P2
2024/01/28 00:02:02;;;;;;;5.90;2.00;;;11.60;62.10;;;;;;5040430;28;20037;-79
2024/01/28 00:04:39;;;;;;;5.13;2.17;;;11.50;61.90;;;;;;5043507;28;20403;-78
2024/01/28 00:07:13;;;;;;;7.13;2.40;;;11.50;61.90;;;;;;5040028;28;20078;-78
2024/01/28 00:09:43;;;;;;;7.55;2.50;;;11.50;61.90;;;;;;5043233;28;20028;-79
2024/01/28 00:12:10;;;;;;;2.88;1.80;;;11.50;61.90;;;;;;5024014;28;20571;-79
2024/01/28 00:14:37;;;;;;;4.63;2.47;;;11.50;61.90;;;;;;5024022;28;20021;-79
2024/01/28 00:17:05;;;;;;;5.20;2.10;;;11.50;61.90;;;;;;5018392;28;20149;-79
2024/01/28 00:19:31;;;;;;;5.43;1.90;;;11.50;61.90;;;;;;5021967;28;20033;-79
2024/01/28 00:22:00;;;;;;;5.13;2.05;;;11.50;61.90;;;;;;5022952;28;20574;-78
2024/01/28 00:24:27;;;;;;;6.03;2.28;;;11.50;61.90;;;;;;5036748;28;20040;-78
2024/01/28 00:26:58;;;;;;;6.60;2.53;;;11.40;61.70;;;;;;5036365;28;20036;-77
2024/01/28 00:29:31;;;;;;;7.35;2.70;;;11.40;61.70;;;;;;5037332;28;20032;-79
2024/01/28 00:31:59;;;;;;;3.45;2.00;;;11.50;61.90;;;;;;5021823;28;20540;-78
2024/01/28 00:34:29;;;;;;;5.88;2.65;;;11.40;61.70;;;;;;5040854;28;20389;-78
2024/01/28 00:36:56;;;;;;;6.10;2.60;;;11.40;61.70;;;;;;5031301;28;20029;-78
2024/01/28 00:39:22;;;;;;;6.95;2.50;;;11.40;61.70;;;;;;5019680;28;20496;-80
2024/01/28 00:41:49;;;;;;;5.97;2.20;;;11.40;61.70;;;;;;5035474;28;20056;-78
2024/01/28 00:44:15;;;;;;;7.68;3.15;;;11.40;61.70;;;;;;5040909;28;20484;-77
2024/01/28 00:46:42;;;;;;;5.55;2.13;;;11.40;61.70;;;;;;5036629;28;20063;-79
2024/01/28 00:49:11;;;;;;;6.70;2.67;;;11.30;61.50;;;;;;5037961;28;20366;-78
2024/01/28 00:51:37;;;;;;;6.78;2.42;;;11.30;61.50;;;;;;5040147;28;20404;-79
2024/01/28 00:54:04;;;;;;;6.75;2.75;;;11.30;61.50;;;;;;5022363;28;20029;-79
2024/01/28 00:56:32;;;;;;;7.10;2.03;;;11.20;61.40;;;;;;5030478;28;20033;-79
2024/01/28 00:58:58;;;;;;;6.30;2.67;;;11.20;61.40;;;;;;5038066;28;20044;-78
2024/01/28 01:01:25;;;;;;;6.10;2.60;;;11.20;61.40;;;;;;5031263;28;20036;-78
2024/01/28 01:03:51;;;;;;;6.15;2.75;;;11.20;61.40;;;;;;5032779;28;20030;-79
2024/01/28 01:06:17;;;;;;;5.47;2.70;;;11.20;61.50;;;;;;5020994;28;20396;-78
2024/01/28 01:08:46;;;;;;;5.07;1.67;;;11.10;61.40;;;;;;5004554;28;20178;-78
2024/01/28 01:11:12;;;;;;;5.18;2.22;;;11.10;61.40;;;;;;5040692;28;20049;-79
2024/01/28 01:13:38;;;;;;;5.47;2.13;;;11.10;61.40;;;;;;5031590;28;20089;-79
2024/01/28 01:16:05;;;;;;;6.10;2.20;;;11.00;61.40;;;;;;5047903;28;20044;-78
2024/01/28 01:18:31;;;;;;;5.03;2.00;;;11.00;61.40;;;;;;5022736;28;20029;-78
2024/01/28 01:20:57;;;;;;;7.63;2.13;;;11.10;61.70;;;;;;5044184;28;20036;-78
2024/01/28 01:23:24;;;;;;;4.55;2.25;;;11.00;61.50;;;;;;5042922;28;20032;-78
2024/01/28 01:25:51;;;;;;;5.03;2.45;;;11.00;61.60;;;;;;5040012;28;20240;-78
2024/01/28 01:28:17;;;;;;;7.22;2.10;;;11.00;61.60;;;;;;5022736;28;20056;-79
2024/01/28 01:30:43;;;;;;;5.25;2.47;;;11.00;61.70;;;;;;5044058;28;20033;-78
2024/01/28 01:33:09;;;;;;;5.07;2.13;;;11.00;61.70;;;;;;5028453;28;20538;-78
2024/01/28 01:35:36;;;;;;;6.15;2.10;;;11.00;61.80;;;;;;5052761;28;20043;-78
2024/01/28 01:38:02;;;;;;;4.50;2.00;;;11.00;61.90;;;;;;5018137;28;20041;-78
2024/01/28 01:40:29;;;;;;;4.85;2.03;;;11.00;62.00;;;;;;5028209;28;20235;-79
2024/01/28 01:42:54;;;;;;;5.07;1.90;;;11.00;62.50;;;;;;5026881;28;20148;-78
2024/01/28 01:45:21;;;;;;;3.47;2.10;;;11.00;62.00;;;;;;5039580;28;20436;-78
2024/01/28 01:47:51;;;;;;;3.92;2.28;;;11.00;62.00;;;;;;5016782;28;20053;-79
2024/01/28 01:50:17;;;;;;;4.35;2.30;;;10.90;61.90;;;;;;5016331;28;20032;-79
2024/01/28 01:52:45;;;;;;;4.20;2.47;;;11.00;62.20;;;;;;5037327;28;20384;-78
2024/01/28 01:55:12;;;;;;;4.03;1.92;;;10.90;62.00;;;;;;5022044;28;20032;-78
2024/01/28 01:57:42;;;;;;;4.70;2.20;;;10.90;62.00;;;;;;5037539;28;20036;-77
2024/01/28 02:00:09;;;;;;;9.18;2.47;;;11.00;62.30;;;;;;5030610;28;20029;-79
2024/01/28 02:02:37;;;;;;;6.75;2.17;;;10.90;62.10;;;;;;5021926;28;20029;-78
2024/01/28 02:05:04;;;;;;;4.10;2.03;;;10.90;62.10;;;;;;4997104;28;20033;-78
2024/01/28 02:07:32;;;;;;;4.68;2.35;;;10.90;62.10;;;;;;5017744;28;20033;-79
2024/01/28 02:09:59;;;;;;;6.38;2.92;;;10.90;62.20;;;;;;5031327;28;20045;-77
2024/01/28 02:12:26;;;;;;;4.13;2.00;;;10.90;62.20;;;;;;5039438;28;20044;-78
2024/01/28 02:15:09;;;;;;;5.88;3.03;;;10.80;62.10;;;;;;5031300;28;20064;-78
2024/01/28 02:17:36;;;;;;;5.55;2.17;;;10.80;62.10;;;;;;5042903;28;20033;-78
2024/01/28 02:20:03;;;;;;;8.80;3.33;;;10.80;62.10;;;;;;5025740;28;20029;-76
2024/01/28 02:22:30;;;;;;;6.32;2.55;;;10.80;62.10;;;;;;5023587;28;20033;-78
2024/01/28 02:24:59;;;;;;;8.88;3.38;;;10.80;62.20;;;;;;5035727;28;20030;-76
2024/01/28 02:27:25;;;;;;;5.32;2.50;;;10.80;62.20;;;;;;5024026;28;20534;-78
2024/01/28 02:29:52;;;;;;;3.95;2.78;;;10.70;62.00;;;;;;5043358;28;20396;-79
2024/01/28 02:32:18;;;;;;;5.65;2.30;;;10.70;62.10;;;;;;5032685;28;20103;-79
2024/01/28 02:34:44;;;;;;;5.55;2.42;;;10.70;62.10;;;;;;5027834;28;20075;-77
2024/01/28 02:37:11;;;;;;;5.10;2.53;;;10.70;62.10;;;;;;5040204;28;20036;-77
2024/01/28 02:39:38;;;;;;;5.88;2.80;;;10.70;62.10;;;;;;5044311;28;20024;-78
2024/01/28 02:42:05;;;;;;;7.28;3.20;;;10.60;62.50;;;;;;5045387;28;20047;-77
2024/01/28 02:44:31;;;;;;;5.18;2.40;;;10.60;62.00;;;;;;5043139;28;20029;-77
2024/01/28 02:47:01;;;;;;;7.47;2.38;;;10.70;62.20;;;;;;5045897;28;20071;-77
2024/01/28 02:49:31;;;;;;;4.18;2.40;;;10.60;62.00;;;;;;5046197;28;20040;-77
2024/01/28 02:51:58;;;;;;;5.68;2.72;;;10.60;62.10;;;;;;5046721;28;20072;-78
2024/01/28 02:54:26;;;;;;;5.10;2.58;;;10.70;62.20;;;;;;5030006;28;20036;-79
2024/01/28 02:56:53;;;;;;;5.75;2.38;;;10.70;62.20;;;;;;5048632;28;20032;-77
2024/01/28 02:59:19;;;;;;;4.30;2.13;;;10.60;62.00;;;;;;5030820;28;20472;-78
2024/01/28 03:01:47;;;;;;;4.45;2.47;;;10.70;62.20;;;;;;5048885;28;20123;-78
2024/01/28 03:04:14;;;;;;;4.25;2.10;;;10.70;62.20;;;;;;5047413;28;20075;-78
2024/01/28 03:06:41;;;;;;;6.35;2.60;;;10.70;62.20;;;;;;5047356;28;20571;-79
2024/01/28 03:09:13;;;;;;;3.78;2.15;;;10.70;62.20;;;;;;5012016;28;20025;-78
2024/01/28 03:11:41;;;;;;;4.43;2.40;;;10.70;62.20;;;;;;5030822;28;20059;-79
2024/01/28 03:14:08;;;;;;;6.30;2.42;;;10.70;62.20;;;;;;5031558;28;20078;-78
2024/01/28 03:16:34;;;;;;;5.78;3.45;;;10.70;62.20;;;;;;5029777;28;20380;-78
2024/01/28 03:19:00;;;;;;;6.03;2.60;;;10.70;62.10;;;;;;5048435;28;20032;-79
2024/01/28 03:21:26;;;;;;;6.32;2.53;;;10.70;62.20;;;;;;5046851;28;20037;-79
2024/01/28 03:23:52;;;;;;;4.15;2.35;;;10.70;62.10;;;;;;5027656;28;20040;-78
2024/01/28 03:26:19;;;;;;;4.85;2.50;;;10.70;62.10;;;;;;5047001;28;20094;-77
2024/01/28 03:28:45;;;;;;;5.45;2.20;;;10.70;62.10;;;;;;5048131;28;20025;-77
2024/01/28 03:31:11;;;;;;;6.85;2.80;;;10.70;62.10;;;;;;5044029;28;20040;-77
2024/01/28 03:33:39;;;;;;;4.80;2.40;;;10.70;62.00;;;;;;5041596;28;20037;-77
2024/01/28 03:36:06;;;;;;;6.88;2.42;;;10.70;62.00;;;;;;5045300;28;20563;-78
2024/01/28 03:38:32;;;;;;;4.97;2.65;;;10.60;61.90;;;;;;5035245;28;20063;-78
2024/01/28 03:40:58;;;;;;;6.38;2.63;;;10.60;61.80;;;;;;5047968;28;20089;-79
2024/01/28 03:43:24;;;;;;;4.43;2.38;;;10.60;61.90;;;;;;5041063;28;20491;-78
2024/01/28 03:45:49;;;;;;;5.30;2.50;;;10.60;61.90;;;;;;5030613;28;20477;-80
2024/01/28 03:48:15;;;;;;;5.80;2.13;;;10.60;61.90;;;;;;5048529;28;20057;-79
2024/01/28 03:50:41;;;;;;;5.65;2.00;;;10.50;61.70;;;;;;5027244;28;20373;-79
2024/01/28 03:53:07;;;;;;;4.60;2.03;;;10.40;61.50;;;;;;5037321;28;20082;-79
2024/01/28 03:55:34;;;;;;;4.93;2.42;;;10.40;61.60;;;;;;5040859;28;20068;-79
2024/01/28 03:58:00;;;;;;;6.00;2.15;;;10.40;61.60;;;;;;5041167;28;20036;-78
2024/01/28 04:00:29;;;;;;;3.17;1.80;;;10.40;61.70;;;;;;5047984;28;20044;-78
2024/01/28 04:03:00;;;;;;;6.90;2.35;;;10.30;61.60;;;;;;5029406;28;20055;-78
2024/01/28 04:05:29;;;;;;;4.00;1.95;;;10.30;61.70;;;;;;5048195;28;20116;-78
2024/01/28 04:07:55;;;;;;;6.07;2.20;;;10.20;61.60;;;;;;5036987;28;20160;-77
2024/01/28 04:10:21;;;;;;;4.85;2.30;;;10.30;61.80;;;;;;5047673;28;20083;-78
2024/01/28 04:12:47;;;;;;;3.17;1.90;;;10.20;61.70;;;;;;5028601;28;20084;-80
2024/01/28 04:15:13;;;;;;;4.50;2.50;;;10.20;61.80;;;;;;5057157;28;20227;-78
2024/01/28 04:17:39;;;;;;;3.22;2.33;;;10.20;61.80;;;;;;5028531;28;21668;-77
2024/01/28 04:20:08;;;;;;;4.63;2.25;;;10.20;61.90;;;;;;5046716;28;20033;-77
2024/01/28 04:22:34;;;;;;;4.28;1.92;;;10.10;61.70;;;;;;5046020;28;20045;-78
2024/01/28 04:25:01;;;;;;;6.32;2.38;;;10.10;61.70;;;;;;5039792;28;20196;-78
2024/01/28 04:27:27;;;;;;;4.00;2.03;;;10.10;61.80;;;;;;5027921;28;20539;-78
2024/01/28 04:29:53;;;;;;;4.97;2.20;;;10.10;61.80;;;;;;5047655;28;20029;-78
2024/01/28 04:32:20;;;;;;;4.07;2.00;;;10.10;61.90;;;;;;5046058;28;20105;-78
2024/01/28 04:34:46;;;;;;;4.85;2.38;;;10.00;61.80;;;;;;5047442;28;20492;-77
2024/01/28 04:37:11;;;;;;;3.92;1.98;;;10.00;62.30;;;;;;5040003;28;20047;-77
2024/01/28 04:39:37;;;;;;;4.97;2.03;;;10.00;61.80;;;;;;5041091;28;20388;-79
2024/01/28 04:42:04;;;;;;;5.18;2.20;;;9.90;61.60;;;;;;5026715;28;20112;-78
2024/01/28 04:44:29;;;;;;;5.32;2.35;;;9.90;61.70;;;;;;5027888;28;20131;-78
2024/01/28 04:46:59;;;;;;;5.53;2.25;;;9.90;61.80;;;;;;5024249;28;20061;-79
2024/01/28 04:49:25;;;;;;;6.32;2.30;;;9.90;61.90;;;;;;5029661;28;20134;-79
2024/01/28 04:51:51;;;;;;;3.67;2.20;;;9.80;61.80;;;;;;5046040;28;20396;-78
2024/01/28 04:54:17;;;;;;;5.93;2.53;;;9.80;61.80;;;;;;5045598;28;20275;-79
2024/01/28 04:56:44;;;;;;;5.07;2.47;;;9.80;61.90;;;;;;5030882;28;20515;-79
2024/01/28 04:59:10;;;;;;;5.90;2.08;;;9.80;61.90;;;;;;5009149;28;20319;-79
2024/01/28 05:01:36;;;;;;;3.40;1.70;;;9.70;61.80;;;;;;5043101;28;20028;-79
2024/01/28 05:04:04;;;;;;;4.78;2.30;;;9.70;61.80;;;;;;5037669;28;20043;-78
2024/01/28 05:06:36;;;;;;;2.78;2.05;;;9.70;61.90;;;;;;5020494;28;20052;-79
2024/01/28 05:09:08;;;;;;;4.77;2.33;;;9.70;61.90;;;;;;5016982;28;20033;-79
2024/01/28 05:11:35;;;;;;;6.00;2.72;;;9.60;61.80;;;;;;5038094;28;20044;-78
2024/01/28 05:14:01;;;;;;;5.85;2.53;;;9.60;61.80;;;;;;5039135;28;20063;-79
2024/01/28 05:16:28;;;;;;;3.13;2.17;;;9.60;61.90;;;;;;5019795;28;20155;-78
2024/01/28 05:18:54;;;;;;;4.78;2.28;;;9.60;61.90;;;;;;5017667;28;20033;-78
2024/01/28 05:21:21;;;;;;;5.53;2.28;;;9.50;61.80;;;;;;5021984;28;20025;-79
2024/01/28 05:23:47;;;;;;;4.47;1.98;;;9.50;61.90;;;;;;5039978;28;20060;-78
2024/01/28 05:26:14;;;;;;;4.47;2.08;;;9.50;62.00;;;;;;5037298;28;20084;-78
2024/01/28 05:28:40;;;;;;;4.93;2.42;;;9.50;62.10;;;;;;5045050;28;20037;-78
2024/01/28 05:31:08;;;;;;;7.68;2.53;;;9.40;62.00;;;;;;5044288;28;20080;-78
2024/01/28 05:33:37;;;;;;;6.07;2.30;;;9.50;62.20;;;;;;5040579;28;20059;-78
2024/01/28 05:36:16;;;;;;;7.57;2.53;;;9.40;62.00;;;;;;5044751;28;20512;-77
2024/01/28 05:38:44;;;;;;;3.92;2.22;;;9.40;62.30;;;;;;5022543;28;20044;-79
2024/01/28 05:41:10;;;;;;;5.53;2.05;;;9.40;62.20;;;;;;5046391;28;20041;-78
2024/01/28 05:43:37;;;;;;;4.45;1.55;;;9.40;62.20;;;;;;5043493;28;20226;-78
2024/01/28 05:46:04;;;;;;;4.63;2.10;;;9.30;62.10;;;;;;5047223;28;20092;-78
2024/01/28 05:48:31;;;;;;;6.20;2.35;;;9.30;62.20;;;;;;5029642;28;20094;-78
2024/01/28 05:50:59;;;;;;;7.80;3.83;;;9.30;62.30;;;;;;5046289;28;20067;-78
2024/01/28 05:53:25;;;;;;;4.93;2.50;;;9.30;62.90;;;;;;5040206;28;20045;-79
2024/01/28 05:55:52;;;;;;;4.88;2.17;;;9.30;62.50;;;;;;5045568;28;20451;-78
2024/01/28 05:58:20;;;;;;;3.80;2.40;;;9.30;62.60;;;;;;5045841;28;20049;-78
2024/01/28 06:00:46;;;;;;;4.65;2.13;;;9.30;62.70;;;;;;5046769;28;20031;-78
2024/01/28 06:03:12;;;;;;;4.35;1.52;;;9.30;62.80;;;;;;5049505;28;20024;-78
2024/01/28 06:05:38;;;;;;;4.90;1.85;;;9.30;62.80;;;;;;5042866;28;20603;-80
2024/01/28 06:08:08;;;;;;;4.78;1.58;;;9.30;62.90;;;;;;5046270;28;20124;-78
2024/01/28 06:10:34;;;;;;;3.28;1.83;;;9.40;63.20;;;;;;5049649;28;20035;-78
2024/01/28 06:13:00;;;;;;;5.07;2.08;;;9.40;63.20;;;;;;5046546;28;20052;-78
2024/01/28 06:15:27;;;;;;;5.95;2.22;;;9.40;63.30;;;;;;5026313;28;20095;-78
2024/01/28 06:17:54;;;;;;;5.35;2.03;;;9.40;63.40;;;;;;5009685;28;20141;-78
2024/01/28 06:20:20;;;;;;;5.45;1.98;;;9.40;63.40;;;;;;5051591;28;20111;-78
2024/01/28 06:22:46;;;;;;;5.55;2.08;;;9.40;63.50;;;;;;5014035;28;20055;-78
2024/01/28 06:25:12;;;;;;;4.57;2.05;;;9.50;63.70;;;;;;5017392;28;20029;-78
2024/01/28 06:27:38;;;;;;;5.55;1.88;;;9.50;63.70;;;;;;5046966;28;20578;-78
2024/01/28 06:30:05;;;;;;;3.05;2.13;;;9.50;63.80;;;;;;5026533;28;20168;-78
2024/01/28 06:32:36;;;;;;;3.28;1.80;;;9.50;63.80;;;;;;5026354;28;20098;-78
2024/01/28 06:35:05;;;;;;;4.57;2.33;;;9.50;63.90;;;;;;5026649;28;20112;-79
2024/01/28 06:37:31;;;;;;;3.60;1.90;;;9.50;63.90;;;;;;5040711;28;20024;-78
2024/01/28 06:39:57;;;;;;;5.97;2.17;;;9.60;64.10;;;;;;5053883;28;20026;-78
2024/01/28 06:42:22;;;;;;;4.63;2.17;;;9.60;64.10;;;;;;5052744;28;20028;-78
2024/01/28 06:44:48;;;;;;;5.25;1.85;;;9.60;64.20;;;;;;5048146;28;20454;-78
2024/01/28 06:47:15;;;;;;;3.72;2.10;;;9.60;64.20;;;;;;5043082;28;20305;-77
2024/01/28 06:49:42;;;;;;;6.28;2.42;;;9.70;64.50;;;;;;5042572;28;20037;-78
2024/01/28 06:52:08;;;;;;;5.18;1.90;;;9.70;64.50;;;;;;5031412;28;20036;-77
2024/01/28 06:54:34;;;;;;;4.82;1.90;;;9.70;64.60;;;;;;5025524;28;20330;-78
2024/01/28 06:57:01;;;;;;;2.75;2.03;;;9.70;64.60;;;;;;5042367;28;20112;-80
2024/01/28 06:59:27;;;;;;;6.22;2.28;;;9.70;64.60;;;;;;5048364;28;20688;-79
2024/01/28 07:01:55;;;;;;;5.28;1.92;;;9.70;64.60;;;;;;5043382;28;20039;-77
2024/01/28 07:04:21;;;;;;;4.85;1.52;;;9.70;64.60;;;;;;5024818;28;20076;-79
2024/01/28 07:06:48;;;;;;;4.95;2.00;;;9.80;64.80;;;;;;5040403;28;20120;-79
2024/01/28 07:09:17;;;;;;;3.38;1.63;;;9.80;64.90;;;;;;5032641;28;20040;-79
2024/01/28 07:11:44;;;;;;;4.90;1.65;;;9.80;64.90;;;;;;5015709;28;20044;-80
2024/01/28 07:14:10;;;;;;;5.07;2.00;;;9.80;64.90;;;;;;5037536;28;20480;-79
2024/01/28 07:16:37;;;;;;;2.58;1.60;;;9.80;64.90;;;;;;5016920;28;20026;-80
2024/01/28 07:19:03;;;;;;;4.18;2.20;;;9.80;65.00;;;;;;5037124;28;20044;-79
2024/01/28 07:21:30;;;;;;;4.28;1.80;;;9.90;65.20;;;;;;5038134;28;20021;-80
2024/01/28 07:23:56;;;;;;;4.40;2.15;;;9.90;65.30;;;;;;5018616;28;20036;-79
2024/01/28 07:26:23;;;;;;;3.97;1.92;;;9.90;65.30;;;;;;5015556;28;20597;-78
2024/01/28 07:28:49;;;;;;;4.65;1.70;;;9.90;65.40;;;;;;5015645;28;20455;-79
2024/01/28 07:31:16;;;;;;;5.80;2.55;;;9.90;65.40;;;;;;5020840;28;20044;-79
2024/01/28 07:33:42;;;;;;;4.55;2.00;;;10.00;65.60;;;;;;5033832;28;20068;-80
2024/01/28 07:36:08;;;;;;;3.58;1.58;;;9.90;65.40;;;;;;5033106;28;20116;-78
2024/01/28 07:38:37;;;;;;;5.38;2.60;;;10.00;65.60;;;;;;5037435;28;20029;-79
2024/01/28 07:41:03;;;;;;;2.70;1.83;;;10.00;65.60;;;;;;5018450;28;20052;-78
2024/01/28 07:43:30;;;;;;;4.05;1.63;;;10.00;65.70;;;;;;5021113;28;20025;-80
2024/01/28 07:45:56;;;;;;;5.53;1.80;;;10.00;65.70;;;;;;5041957;28;20227;-78
2024/01/28 07:48:21;;;;;;;4.90;1.77;;;10.00;65.70;;;;;;5036685;28;20359;-79
2024/01/28 07:50:47;;;;;;;4.07;2.67;;;10.10;65.90;;;;;;5039930;28;20498;-79
2024/01/28 07:53:13;;;;;;;5.55;1.58;;;10.10;66.00;;;;;;5035564;28;20033;-79
2024/01/28 07:55:39;;;;;;;3.42;1.40;;;10.00;65.80;;;;;;5029861;28;20048;-79
2024/01/28 07:58:05;;;;;;;4.38;1.55;;;10.10;66.00;;;;;;5027997;28;20116;-78
2024/01/28 08:00:31;;;;;;;4.53;2.03;;;10.10;66.00;;;;;;5034576;28;20025;-78
2024/01/28 08:02:57;;;;;;;2.90;1.30;;;10.10;66.00;;;;;;5017576;28;20036;-78
2024/01/28 08:05:25;;;;;;;4.63;1.40;;;10.10;66.10;;;;;;5014685;28;20121;-79
2024/01/28 08:07:52;;;;;;;6.15;1.75;;;10.20;66.20;;;;;;5030090;28;20029;-79
2024/01/28 08:10:18;;;;;;;5.15;2.42;;;10.20;66.20;;;;;;5037177;28;20360;-79
2024/01/28 08:12:44;;;;;;;3.72;1.63;;;10.20;66.20;;;;;;5042005;28;20562;-78
2024/01/28 08:15:10;;;;;;;4.90;1.60;;;10.20;66.20;;;;;;5035412;28;20160;-79
2024/01/28 08:17:36;;;;;;;4.60;2.40;;;10.30;66.40;;;;;;5032715;28;20028;-80
2024/01/28 08:20:04;;;;;;;4.70;2.05;;;10.30;66.40;;;;;;5022436;28;20025;-78
2024/01/28 08:22:29;;;;;;;3.20;1.58;;;10.30;66.40;;;;;;5016959;28;20047;-78
2024/01/28 08:24:56;;;;;;;4.88;1.80;;;10.30;66.40;;;;;;5003741;28;20021;-77
2024/01/28 08:27:25;;;;;;;3.15;1.95;;;10.40;66.60;;;;;;5014457;28;20495;-77
2024/01/28 08:29:51;;;;;;;4.07;1.70;;;10.40;67.00;;;;;;5033856;28;20025;-81
2024/01/28 08:32:17;;;;;;;5.35;1.88;;;10.50;67.50;;;;;;5016326;28;20040;-79
2024/01/28 08:34:45;;;;;;;6.35;1.80;;;10.80;68.30;;;;;;5013841;28;20025;-79
2024/01/28 08:37:12;;;;;;;2.55;1.58;;;11.10;68.80;;;;;;5029362;28;20853;-79
2024/01/28 08:39:38;;;;;;;7.07;2.20;;;11.30;68.90;;;;;;5033339;28;20032;-81
2024/01/28 08:42:04;;;;;;;4.13;1.52;;;11.60;69.20;;;;;;5014665;28;20033;-79
2024/01/28 08:44:31;;;;;;;9.70;2.88;;;11.90;69.50;;;;;;5020066;28;20089;-79
2024/01/28 08:46:57;;;;;;;42.63;32.40;;;12.20;69.80;;;;;;5031383;28;20443;-78
2024/01/28 08:49:23;;;;;;;52.53;44.00;;;12.50;70.20;;;;;;5022380;28;20056;-82
2024/01/28 08:51:50;;;;;;;54.40;43.75;;;12.70;70.50;;;;;;5033941;28;20084;-81
2024/01/28 08:54:16;;;;;;;176.00;150.32;;;13.00;70.80;;;;;;5019711;28;20043;-79
2024/01/28 08:56:42;;;;;;;244.48;217.52;;;13.30;71.10;;;;;;5029822;28;20045;-78
2024/01/28 08:59:09;;;;;;;212.13;182.35;;;13.50;71.10;;;;;;5031682;28;20587;-82
2024/01/28 09:01:35;;;;;;;207.90;179.02;;;13.70;71.10;;;;;;5021992;28;20025;-78
2024/01/28 09:04:02;;;;;;;196.10;172.18;;;13.90;71.10;;;;;;5042997;28;20123;-78
2024/01/28 09:06:31;;;;;;;179.20;159.15;;;14.10;71.10;;;;;;5024332;28;20073;-77
2024/01/28 09:09:08;;;;;;;173.10;149.57;;;14.20;71.00;;;;;;5014497;28;20069;-79
2024/01/28 09:11:40;;;;;;;155.68;138.55;;;14.40;70.90;;;;;;4992492;28;20053;-78
2024/01/28 09:14:07;;;;;;;151.23;134.52;;;14.50;70.70;;;;;;5045260;28;20071;-78
2024/01/28 09:16:33;;;;;;;141.90;126.80;;;14.60;70.50;;;;;;5034711;28;20095;-79
2024/01/28 09:19:03;;;;;;;129.35;115.07;;;14.70;70.40;;;;;;5016169;28;20037;-79
2024/01/28 09:21:31;;;;;;;132.63;114.72;;;14.80;70.80;;;;;;5033207;28;20071;-78
2024/01/28 09:24:00;;;;;;;119.65;107.00;;;14.90;70.20;;;;;;5037975;28;20495;-81
2024/01/28 09:26:31;;;;;;;119.35;105.45;;;15.00;70.10;;;;;;5015511;28;20033;-78
2024/01/28 09:28:57;;;;;;;114.28;102.03;;;15.10;70.00;;;;;;5039036;28;20498;-79
2024/01/28 09:31:24;;;;;;;104.90;93.45;;;15.20;69.90;;;;;;5006216;28;20076;-78
2024/01/28 09:33:50;;;;;;;100.53;89.68;;;15.30;69.80;;;;;;5036215;28;20035;-78
2024/01/28 09:36:17;;;;;;;91.90;81.72;;;15.40;69.70;;;;;;5036946;28;20036;-78
2024/01/28 09:38:47;;;;;;;94.40;84.10;;;15.50;69.60;;;;;;5030448;28;20061;-77
2024/01/28 09:41:38;;;;;;;85.13;76.00;;;15.60;69.40;;;;;;5042277;28;20103;-78
2024/01/28 09:44:05;;;;;;;84.32;71.78;;;15.70;69.20;;;;;;5040225;28;20087;-79
2024/01/28 09:46:36;;;;;;;71.45;63.70;;;15.80;69.10;;;;;;5041570;28;20289;-79
2024/01/28 09:49:03;;;;;;;72.50;62.58;;;15.90;68.90;;;;;;5024800;28;20259;-79
2024/01/28 09:51:30;;;;;;;69.72;61.70;;;16.00;68.80;;;;;;5034681;28;20051;-77
2024/01/28 09:54:01;;;;;;;64.47;55.72;;;16.10;68.60;;;;;;5018187;28;20029;-78
2024/01/28 09:56:28;;;;;;;59.92;53.33;;;16.10;68.30;;;;;;5027448;28;20029;-77
2024/01/28 09:58:54;;;;;;;52.58;46.83;;;16.20;68.20;;;;;;5040655;28;20040;-79
2024/01/28 10:01:21;;;;;;;53.83;46.65;;;16.30;68.10;;;;;;5032868;28;20053;-79
2024/01/28 10:03:48;;;;;;;53.70;45.80;;;16.40;68.00;;;;;;5033433;28;20061;-80
2024/01/28 10:06:14;;;;;;;46.85;40.53;;;16.40;67.70;;;;;;5011266;28;20037;-79
2024/01/28 10:08:40;;;;;;;46.63;41.20;;;16.50;67.60;;;;;;5036699;28;20033;-78
2024/01/28 10:11:09;;;;;;;44.80;39.47;;;16.50;67.30;;;;;;5013602;28;20507;-79
2024/01/28 10:13:35;;;;;;;43.17;37.50;;;16.60;67.30;;;;;;5012155;28;20032;-78
2024/01/28 10:16:05;;;;;;;41.55;37.05;;;16.70;67.20;;;;;;5032260;28;20021;-78
2024/01/28 10:18:34;;;;;;;;;;;16.80;67.10;;;;;;5016551;28;20042;-79
2024/01/28 10:21:01;;;;;;;39.53;33.78;;;16.90;67.00;;;;;;5038308;28;20072;-79
2024/01/28 10:23:27;;;;;;;32.85;29.35;;;16.90;66.90;;;;;;5020893;28;20287;-80
2024/01/28 10:25:58;;;;;;;34.30;28.75;;;17.00;66.80;;;;;;5038561;28;20033;-79
2024/01/28 10:28:27;;;;;;;29.48;26.42;;;17.00;66.40;;;;;;5021654;28;20382;-79
2024/01/28 10:30:54;;;;;;;29.05;25.92;;;17.10;66.40;;;;;;5034622;28;20033;-79
2024/01/28 10:33:20;;;;;;;30.48;27.15;;;17.10;66.20;;;;;;5020009;28;20376;-79
2024/01/28 10:35:47;;;;;;;31.98;25.55;;;17.20;66.10;;;;;;5034940;28;20457;-80
2024/01/28 10:38:19;;;;;;;25.02;22.35;;;17.30;66.00;;;;;;5031118;28;20039;-78
2024/01/28 10:40:49;;;;;;;25.02;22.33;;;17.30;65.70;;;;;;5038588;28;20567;-79
2024/01/28 10:43:18;;;;;;;22.85;20.38;;;17.40;65.70;;;;;;5014998;28;20124;-80
2024/01/28 10:45:50;;;;;;;23.95;20.65;;;17.50;65.60;;;;;;5042219;28;20029;-78
2024/01/28 10:48:18;;;;;;;21.75;19.45;;;17.60;65.50;;;;;;5036408;28;20057;-76
2024/01/28 10:50:46;;;;;;;23.25;19.35;;;17.70;65.40;;;;;;5039514;28;20334;-80
2024/01/28 10:53:17;;;;;;;18.73;16.77;;;17.80;65.30;;;;;;5039626;28;20079;-80
2024/01/28 10:55:44;;;;;;;20.48;17.48;;;17.90;65.20;;;;;;5042672;28;20029;-79
2024/01/28 10:58:16;;;;;;;19.23;16.15;;;17.90;64.90;;;;;;5023467;28;20052;-78
2024/01/28 11:00:43;;;;;;;17.92;15.52;;;18.00;64.60;;;;;;5011284;28;20053;-78
2024/01/28 11:03:10;;;;;;;21.75;16.02;;;18.10;64.60;;;;;;5024948;28;20377;-77
2024/01/28 11:05:37;;;;;;;16.88;13.40;;;18.20;64.50;;;;;;5031397;28;20124;-79
2024/01/28 11:08:04;;;;;;;16.02;14.13;;;18.30;64.40;;;;;;5018160;28;20037;-80
2024/01/28 11:10:31;;;;;;;16.55;12.38;;;18.40;64.30;;;;;;5042924;28;20431;-79
2024/01/28 11:12:57;;;;;;;15.13;12.05;;;18.50;64.20;;;;;;5023399;28;20354;-80
2024/01/28 11:15:26;;;;;;;15.75;11.85;;;18.50;63.80;;;;;;5021930;28;20025;-80
2024/01/28 11:17:54;;;;;;;11.75;10.48;;;18.60;63.70;;;;;;5005942;28;20043;-80
2024/01/28 11:20:27;;;;;;;12.00;10.70;;;18.70;63.50;;;;;;5037591;28;20030;-80
2024/01/28 11:22:58;;;;;;;13.20;10.00;;;18.80;63.50;;;;;;5049020;28;20029;-81
2024/01/28 11:25:29;;;;;;;11.85;9.02;;;18.90;63.40;;;;;;5023261;28;20036;-82
2024/01/28 11:28:01;;;;;;;11.23;9.27;;;18.90;63.10;;;;;;5006290;28;20098;-80
2024/01/28 11:30:28;;;;;;;10.80;9.50;;;19.00;63.10;;;;;;5021403;28;20028;-81
2024/01/28 11:33:10;;;;;;;12.15;8.57;;;19.10;63.10;;;;;;5020121;28;20041;-78
2024/01/28 11:35:39;;;;;;;8.90;7.35;;;19.10;62.80;;;;;;5022097;28;20310;-76
2024/01/28 11:38:10;;;;;;;9.13;6.95;;;19.20;62.70;;;;;;4999698;28;20766;-77
2024/01/28 11:40:39;;;;;;;9.30;7.15;;;19.30;62.50;;;;;;5015301;28;20040;-77
2024/01/28 11:43:09;;;;;;;7.22;6.55;;;19.30;62.30;;;;;;5040588;28;20061;-78
2024/01/28 11:45:36;;;;;;;10.30;6.82;;;19.30;62.30;;;;;;5015492;28;20658;-76
2024/01/28 11:48:10;;;;;;;10.93;6.72;;;19.30;62.80;;;;;;5013815;28;20140;-77
2024/01/28 11:50:36;;;;;;;8.10;6.38;;;19.30;62.60;;;;;;5015715;28;20033;-78
2024/01/28 11:53:05;;;;;;;7.97;5.60;;;19.40;62.10;;;;;;5038762;28;20051;-79
2024/01/28 11:55:33;;;;;;;7.45;6.43;;;19.40;61.90;;;;;;5013419;28;20447;-78
2024/01/28 11:58:07;;;;;;;9.55;6.65;;;19.40;61.70;;;;;;5013316;28;20044;-80
2024/01/28 12:00:37;;;;;;;6.88;5.78;;;19.50;61.80;;;;;;5037901;28;20037;-78
2024/01/28 12:03:04;;;;;;;6.85;5.10;;;19.50;61.70;;;;;;5025470;28;20052;-79
2024/01/28 12:05:31;;;;;;;7.25;4.70;;;19.50;61.60;;;;;;5022130;28;20036;-79
2024/01/28 12:07:58;;;;;;;7.68;5.18;;;19.60;61.70;;;;;;5018469;28;20068;-78
2024/01/28 12:10:25;;;;;;;6.63;5.93;;;19.60;61.60;;;;;;5013566;28;20029;-79
2024/01/28 12:12:56;;;;;;;6.15;5.13;;;19.70;61.70;;;;;;5032982;28;20049;-76
2024/01/28 12:15:23;;;;;;;7.32;5.90;;;19.70;61.70;;;;;;5012779;28;20036;-78
2024/01/28 12:17:52;;;;;;;10.45;6.75;;;19.70;61.70;;;;;;5032064;28;20085;-82
2024/01/28 12:20:22;;;;;;;8.57;6.72;;;19.80;61.90;;;;;;5032560;28;20025;-79
2024/01/28 12:22:53;;;;;;;;;;;19.90;62.10;;;;;;4986668;28;20064;-79
2024/01/28 12:25:21;;;;;;;7.93;7.03;;;19.90;62.10;;;;;;5013709;28;19917;-81
2024/01/28 12:27:51;;;;;;;11.02;7.68;;;19.90;62.20;;;;;;5016717;28;20037;-77
2024/01/28 12:30:18;;;;;;;11.38;6.57;;;20.00;62.30;;;;;;5013526;28;20552;-79
2024/01/28 12:32:45;;;;;;;10.13;7.30;;;20.00;62.30;;;;;;5031209;28;20130;-78
2024/01/28 12:35:12;;;;;;;9.32;6.72;;;20.10;62.60;;;;;;5020304;28;20350;-78
2024/01/28 12:37:38;;;;;;;9.43;7.10;;;20.10;62.50;;;;;;5025548;28;20017;-80
2024/01/28 12:40:10;;;;;;;10.70;7.18;;;20.10;62.60;;;;;;5016778;28;20463;-79
2024/01/28 12:42:40;;;;;;;11.85;7.70;;;20.10;62.50;;;;;;5033306;28;20933;-78
2024/01/28 12:45:08;;;;;;;10.00;6.85;;;20.20;62.70;;;;;;5013641;28;20033;-79